Time;durP1;ratioP1;P1;durP2;ratioP2;P2;SDS_P1;SDS_P2;PMS_P1;PMS_P2;Temp;Humidity;BMP_temperature;BMP_pressure;BME280_temperature;BME280_humidity;BME280_pressure;Samples;Min_cycle;Max_cycle;Signal;HPM_P1;HPM_P2
2023/08/07 00:01:21;;;;;;;2.17;2.00;;;;;;;19.44;75.16;94097.88;5092520;28;20197;-42
2023/08/07 00:03:47;;;;;;;1.90;1.80;;;;;;;19.45;74.96;94102.03;5092796;28;20192;-43
2023/08/07 00:06:14;;;;;;;2.00;1.90;;;;;;;19.47;75.23;94102.63;5092416;28;20642;-42
2023/08/07 00:08:41;;;;;;;2.00;1.90;;;;;;;19.48;75.29;94097.25;5092570;28;20625;-42
2023/08/07 00:11:08;;;;;;;2.13;1.83;;;;;;;19.45;75.82;94102.03;5092444;28;20201;-43
2023/08/07 00:13:35;;;;;;;2.50;2.20;;;;;;;19.42;75.83;94108.44;5092261;28;20700;-42
2023/08/07 00:16:02;;;;;;;1.83;1.73;;;;;;;19.40;76.40;94100.06;5092406;28;20212;-43
2023/08/07 00:18:30;;;;;;;2.40;2.20;;;;;;;19.39;76.51;94102.88;5092559;28;20186;-43
2023/08/07 00:20:57;;;;;;;2.00;1.90;;;;;;;19.32;76.39;94096.91;5092373;28;20308;-42
2023/08/07 00:23:24;;;;;;;2.20;2.10;;;;;;;19.28;76.60;94099.91;5092252;28;20231;-43
2023/08/07 00:25:51;;;;;;;2.33;2.13;;;;;;;19.26;76.71;94098.53;5091979;28;20536;-42
2023/08/07 00:28:18;;;;;;;2.00;1.90;;;;;;;19.17;76.74;94097.97;5092601;28;20186;-42
2023/08/07 00:30:45;;;;;;;2.20;2.10;;;;;;;19.19;76.80;94098.56;5091960;28;20221;-44
2023/08/07 00:33:12;;;;;;;1.90;1.80;;;;;;;19.27;76.23;94105.31;5092040;28;20236;-44
2023/08/07 00:35:40;;;;;;;2.30;2.13;;;;;;;19.23;76.54;94104.91;5092167;28;20221;-43
2023/08/07 00:38:07;;;;;;;2.10;2.00;;;;;;;19.19;77.55;94108.13;5091691;28;20189;-43
2023/08/07 00:40:40;;;;;;;2.10;2.00;;;;;;;19.03;78.20;94107.56;5092301;28;20250;-42
2023/08/07 00:43:07;;;;;;;2.70;2.37;;;;;;;18.86;79.37;94097.84;5091709;28;20194;-43
2023/08/07 00:45:39;;;;;;;1.90;1.80;;;;;;;18.73;80.52;94109.03;5092247;28;20197;-43
2023/08/07 00:48:06;;;;;;;3.13;2.30;;;;;;;18.58;80.73;94111.81;5091599;28;20197;-42
2023/08/07 00:50:34;;;;;;;2.00;1.90;;;;;;;18.46;81.34;94113.44;5091585;28;20829;-42
2023/08/07 00:53:02;;;;;;;2.10;2.00;;;;;;;18.37;81.94;94117.22;5091470;28;20218;-42
2023/08/07 00:55:29;;;;;;;2.13;2.03;;;;;;;18.25;82.57;94122.97;5091758;28;20201;-44
2023/08/07 00:57:57;;;;;;;2.40;2.30;;;;;;;18.25;82.78;94127.38;5091786;28;20666;-44
2023/08/07 01:00:24;;;;;;;2.20;2.10;;;;;;;18.28;82.88;94132.94;5091287;28;20204;-44
2023/08/07 01:02:53;;;;;;;2.50;2.30;;;;;;;18.32;82.89;94138.53;5091284;28;20259;-45
2023/08/07 01:05:19;;;;;;;2.40;2.23;;;;;;;18.38;83.09;94137.72;5091723;28;20181;-43
2023/08/07 01:07:51;;;;;;;2.37;2.20;;;;;;;18.43;83.08;94137.13;5091197;28;20225;-42
2023/08/07 01:10:20;;;;;;;2.20;2.10;;;;;;;18.50;83.04;94137.94;5091676;28;20221;-41
2023/08/07 01:12:54;;;;;;;2.47;2.30;;;;;;;18.57;83.06;94143.91;5091361;28;20182;-45
2023/08/07 01:15:24;;;;;;;2.23;2.03;;;;;;;18.57;83.08;94146.50;5091223;28;20190;-44
2023/08/07 01:17:54;;;;;;;2.20;2.10;;;;;;;18.45;83.25;94125.59;5091289;28;20186;-44
2023/08/07 01:20:21;;;;;;;2.57;2.10;;;;;;;18.56;83.24;94147.47;5091454;28;20215;-42
2023/08/07 01:22:49;;;;;;;2.57;2.37;;;;;;;18.58;83.24;94147.28;5091238;28;20186;-42
2023/08/07 01:25:16;;;;;;;3.07;2.30;;;;;;;18.58;83.16;94155.06;5091353;28;20194;-42
2023/08/07 01:27:51;;;;;;;2.37;2.17;;;;;;;18.51;82.78;94155.03;5090874;28;20205;-42
2023/08/07 01:30:24;;;;;;;2.73;2.53;;;;;;;18.51;82.87;94160.22;5090951;28;20241;-44
2023/08/07 01:33:00;;;;;;;2.57;2.37;;;;;;;18.46;83.00;94140.09;5091194;28;20542;-42
2023/08/07 01:35:30;;;;;;;2.70;2.50;;;;;;;18.44;82.83;94138.75;5090984;28;20673;-41
2023/08/07 01:38:00;;;;;;;2.57;2.37;;;;;;;18.43;83.02;94150.84;5090641;28;20193;-42
2023/08/07 01:40:29;;;;;;;2.60;2.40;;;;;;;18.44;83.12;94136.94;5091046;28;20181;-43
2023/08/07 01:42:56;;;;;;;2.63;2.43;;;;;;;18.30;82.95;94112.03;5090660;28;20194;-41
2023/08/07 01:45:24;;;;;;;2.70;2.50;;;;;;;18.56;83.17;94139.69;5091119;28;20182;-42
2023/08/07 01:47:52;;;;;;;2.63;2.43;;;;;;;18.58;83.04;94155.84;5090828;28;20192;-43
2023/08/07 01:50:19;;;;;;;2.47;2.27;;;;;;;18.59;82.80;94147.09;5090887;28;20516;-41
2023/08/07 01:52:46;;;;;;;3.53;2.60;;;;;;;18.59;82.88;94144.50;5090490;28;20672;-42
2023/08/07 01:55:14;;;;;;;3.33;2.90;;;;;;;18.54;83.10;94144.31;5090234;28;20218;-42
2023/08/07 01:57:41;;;;;;;2.80;2.60;;;;;;;18.48;83.21;94150.25;5090435;28;20194;-43
2023/08/07 02:00:09;;;;;;;4.60;2.70;;;;;;;18.44;83.05;94142.13;5090064;28;20189;-42
2023/08/07 02:02:36;;;;;;;2.70;2.50;;;;;;;18.47;83.13;94153.84;5090434;28;20276;-42
2023/08/07 02:05:03;;;;;;;2.43;2.33;;;;;;;18.49;83.19;94155.25;5090310;28;20645;-42
2023/08/07 02:07:30;;;;;;;2.60;2.50;;;;;;;18.49;83.29;94157.06;5090353;28;20636;-43
2023/08/07 02:09:58;;;;;;;2.70;2.50;;;;;;;18.45;83.28;94156.66;5090237;28;20182;-43
2023/08/07 02:12:27;;;;;;;2.60;2.20;;;;;;;18.45;83.01;94159.25;5089562;28;20193;-42
2023/08/07 02:14:54;;;;;;;2.50;2.30;;;;;;;18.42;82.88;94151.84;5089929;28;20214;-42
2023/08/07 02:17:21;;;;;;;2.50;2.30;;;;;;;18.37;82.92;94149.06;5090303;28;20186;-41
2023/08/07 02:19:48;;;;;;;3.50;2.40;;;;;;;18.39;82.49;94165.19;5089937;28;20687;-43
2023/08/07 02:22:15;;;;;;;2.70;2.50;;;;;;;18.37;83.08;94164.63;5090123;28;20197;-42
2023/08/07 02:24:42;;;;;;;2.57;2.47;;;;;;;18.27;82.73;94156.44;5089959;28;20197;-43
2023/08/07 02:27:08;;;;;;;2.83;2.63;;;;;;;18.33;82.86;94173.75;5090396;28;20181;-41
2023/08/07 02:29:37;;;;;;;2.60;2.40;;;;;;;18.32;83.07;94171.38;5090408;28;20201;-44
2023/08/07 02:32:04;;;;;;;3.50;2.33;;;;;;;18.32;82.91;94176.56;5089935;28;20190;-42
2023/08/07 02:34:32;;;;;;;2.67;2.47;;;;;;;18.32;83.19;94174.75;5089943;28;20236;-44
2023/08/07 02:36:58;;;;;;;2.37;2.27;;;;;;;18.28;83.09;94171.78;5089704;28;20887;-45
2023/08/07 02:39:25;;;;;;;2.80;2.60;;;;;;;18.29;82.94;94168.19;5090197;28;20197;-41
2023/08/07 02:41:52;;;;;;;3.70;2.53;;;;;;;18.33;83.03;94171.19;5089520;28;20676;-41
2023/08/07 02:44:19;;;;;;;3.97;2.40;;;;;;;18.33;82.88;94168.59;5090069;28;20194;-42
2023/08/07 02:46:48;;;;;;;13.90;9.47;;;;;;;18.32;83.08;94173.97;5089994;28;20284;-43
2023/08/07 02:49:14;;;;;;;127.63;85.77;;;;;;;18.35;82.90;94179.56;5090145;28;20255;-44
2023/08/07 02:51:41;;;;;;;26.17;18.10;;;;;;;18.39;83.00;94180.72;5089414;28;20194;-44
2023/08/07 02:54:08;;;;;;;3.03;2.83;;;;;;;18.33;83.17;94186.72;5089864;28;20221;-44
2023/08/07 02:56:35;;;;;;;2.87;2.60;;;;;;;18.26;82.93;94181.53;5089356;28;20650;-42
2023/08/07 02:59:02;;;;;;;2.70;2.50;;;;;;;18.19;83.12;94182.53;5090052;28;20182;-43
2023/08/07 03:01:29;;;;;;;2.90;2.53;;;;;;;18.05;83.54;94185.09;5089751;28;20229;-43
2023/08/07 03:03:57;;;;;;;4.43;2.77;;;;;;;18.03;83.92;94197.41;5089773;28;20198;-41
2023/08/07 03:06:24;;;;;;;2.90;2.70;;;;;;;17.99;84.30;94188.44;5089626;28;20194;-42
2023/08/07 03:08:51;;;;;;;3.00;2.73;;;;;;;17.98;84.40;94199.78;5089284;28;20212;-42
2023/08/07 03:11:18;;;;;;;3.03;2.83;;;;;;;17.82;84.50;94191.56;5089743;28;20657;-43
2023/08/07 03:13:45;;;;;;;3.03;2.80;;;;;;;17.75;84.98;94199.31;5089320;28;20653;-43
2023/08/07 03:16:12;;;;;;;3.17;2.87;;;;;;;17.71;85.17;94211.00;5089841;28;20284;-45
2023/08/07 03:18:38;;;;;;;2.90;2.70;;;;;;;17.67;85.92;94208.00;5089660;28;20189;-44
2023/08/07 03:21:07;;;;;;;5.10;3.10;;;;;;;17.62;86.37;94196.66;5090897;28;20201;-41
2023/08/07 03:23:33;;;;;;;2.97;2.77;;;;;;;17.53;86.95;94202.00;5091059;28;20186;-43
2023/08/07 03:26:05;;;;;;;3.17;2.87;;;;;;;17.60;87.34;94211.56;5093679;28;20234;-43
2023/08/07 03:28:31;;;;;;;3.20;3.00;;;;;;;17.60;87.72;94212.34;5093346;28;20231;-43
2023/08/07 03:30:58;;;;;;;3.30;3.00;;;;;;;17.62;87.95;94205.22;5093096;28;20237;-43
2023/08/07 03:33:25;;;;;;;3.57;3.27;;;;;;;17.65;87.64;94214.34;5093317;28;20182;-44
2023/08/07 03:35:52;;;;;;;3.57;3.27;;;;;;;17.69;88.02;94223.31;5093131;28;20210;-43
2023/08/07 03:38:20;;;;;;;3.23;3.03;;;;;;;17.69;87.71;94226.72;5093481;28;20272;-43
2023/08/07 03:40:47;;;;;;;3.67;3.40;;;;;;;17.67;88.00;94226.13;5093055;28;20189;-43
2023/08/07 03:43:13;;;;;;;3.50;3.20;;;;;;;17.73;88.10;94242.66;5093399;28;20193;-44
2023/08/07 03:45:41;;;;;;;3.27;3.07;;;;;;;17.69;87.81;94237.06;5093104;28;20263;-42
2023/08/07 03:48:07;;;;;;;3.53;3.33;;;;;;;17.57;87.85;94217.91;5093381;28;20189;-43
2023/08/07 03:50:37;;;;;;;3.27;2.73;;;;;;;17.75;87.56;94244.09;5092910;28;20203;-45
2023/08/07 03:53:04;;;;;;;3.40;3.20;;;;;;;17.78;87.16;94245.47;5093403;28;20186;-43
2023/08/07 03:55:32;;;;;;;4.57;2.77;;;;;;;17.82;86.53;94243.31;5092348;28;20205;-45
2023/08/07 03:57:59;;;;;;;3.00;2.80;;;;;;;17.95;85.55;94248.53;5092807;28;20200;-43
2023/08/07 04:00:25;;;;;;;3.17;2.83;;;;;;;18.00;84.50;94252.16;5092597;28;20190;-41
2023/08/07 04:02:52;;;;;;;2.90;2.70;;;;;;;18.03;84.24;94256.13;5093011;28;20182;-45
2023/08/07 04:05:19;;;;;;;3.03;2.83;;;;;;;18.07;84.07;94259.91;5092795;28;20185;-41
2023/08/07 04:07:46;;;;;;;3.20;2.73;;;;;;;18.16;83.68;94263.94;5092670;28;20197;-43
2023/08/07 04:10:12;;;;;;;2.83;2.63;;;;;;;18.28;82.95;94264.97;5092213;28;20238;-43
2023/08/07 04:12:41;;;;;;;3.13;2.83;;;;;;;18.33;82.53;94261.78;5092967;28;20542;-44
2023/08/07 04:15:09;;;;;;;3.20;3.00;;;;;;;18.42;82.19;94263.19;5092963;28;20217;-43
2023/08/07 04:17:36;;;;;;;2.93;2.60;;;;;;;18.46;81.95;94261.00;5092528;28;20225;-43
2023/08/07 04:20:04;;;;;;;2.80;2.60;;;;;;;18.60;81.80;94265.22;5092469;28;20239;-43
2023/08/07 04:22:32;;;;;;;4.40;2.87;;;;;;;18.67;81.05;94271.19;5092383;28;20189;-43
2023/08/07 04:24:59;;;;;;;3.90;3.00;;;;;;;18.82;79.91;94265.84;5092228;28;20194;-42
2023/08/07 04:27:27;;;;;;;2.67;2.47;;;;;;;18.84;79.94;94270.84;5092100;28;20202;-42
2023/08/07 04:29:55;;;;;;;2.83;2.63;;;;;;;18.93;79.40;94273.03;5091902;28;20212;-44
2023/08/07 04:32:22;;;;;;;4.77;2.57;;;;;;;18.99;78.66;94281.81;5092024;28;20221;-43
2023/08/07 04:34:50;;;;;;;2.90;2.60;;;;;;;18.89;78.96;94265.88;5091735;28;20217;-44
2023/08/07 04:37:17;;;;;;;2.83;2.63;;;;;;;19.08;78.65;94282.41;5091668;28;20182;-43
2023/08/07 04:39:44;;;;;;;3.87;2.57;;;;;;;19.10;78.58;94283.03;5091978;28;20186;-42
2023/08/07 04:42:10;;;;;;;4.00;2.60;;;;;;;18.68;78.50;94215.00;5091767;28;20194;-44
2023/08/07 04:44:37;;;;;;;3.00;2.80;;;;;;;19.21;77.76;94291.00;5091918;28;20202;-41
2023/08/07 04:47:06;;;;;;;2.73;2.50;;;;;;;19.23;77.67;94290.78;5091821;28;20243;-44
2023/08/07 04:49:33;;;;;;;3.60;2.70;;;;;;;19.20;77.83;94291.97;5092007;28;20197;-43
2023/08/07 04:52:00;;;;;;;3.73;2.70;;;;;;;19.17;78.53;94286.38;5091587;28;20243;-42
2023/08/07 04:54:26;;;;;;;2.90;2.70;;;;;;;19.34;77.50;94269.41;5092260;28;20282;-42
2023/08/07 04:56:53;;;;;;;3.10;2.60;;;;;;;19.54;76.81;94285.75;5092053;28;20186;-43
2023/08/07 04:59:20;;;;;;;3.50;3.00;;;;;;;19.76;76.70;94288.91;5092067;28;20315;-43
2023/08/07 05:01:47;;;;;;;2.67;2.47;;;;;;;20.15;75.29;94286.38;5092052;28;20185;-43
2023/08/07 05:04:15;;;;;;;3.47;3.03;;;;;;;20.59;73.04;94295.97;5091647;28;20189;-42
2023/08/07 05:06:41;;;;;;;2.75;2.55;;;;;;;20.84;71.47;94287.44;5091577;28;20182;-43
2023/08/07 05:09:08;;;;;;;2.88;2.50;;;;;;;21.08;70.71;94291.06;5091614;28;20189;-44
2023/08/07 05:11:35;;;;;;;2.42;2.33;;;;;;;21.36;69.07;94280.25;5091837;28;20212;-44
2023/08/07 05:14:02;;;;;;;2.45;2.30;;;;;;;21.69;67.94;94272.13;5091324;28;20722;-42
2023/08/07 05:16:28;;;;;;;2.78;2.58;;;;;;;21.86;67.45;94274.94;5091166;28;20655;-43
2023/08/07 05:18:55;;;;;;;2.92;2.72;;;;;;;22.05;67.04;94269.50;5091160;28;20542;-44
2023/08/07 05:21:23;;;;;;;2.88;2.20;;;;;;;22.36;65.93;94278.16;5091151;28;20193;-43
2023/08/07 05:23:53;;;;;;;2.65;2.45;;;;;;;22.67;63.88;94273.75;5091002;28;20529;-43
2023/08/07 05:26:20;;;;;;;2.65;2.45;;;;;;;22.88;63.21;94269.81;5091678;28;20217;-44
2023/08/07 05:28:47;;;;;;;2.55;2.35;;;;;;;23.14;62.46;94273.84;5091092;28;20596;-43
2023/08/07 05:31:14;;;;;;;2.60;2.40;;;;;;;23.39;60.92;94278.84;5091039;28;20264;-43
2023/08/07 05:33:40;;;;;;;3.25;2.47;;;;;;;23.62;60.54;94278.84;5091084;28;20190;-43
2023/08/07 05:36:07;;;;;;;3.42;2.60;;;;;;;23.80;59.32;94285.78;5090923;28;20330;-45
2023/08/07 05:38:35;;;;;;;2.22;2.03;;;;;;;23.89;58.92;94283.63;5091245;28;20186;-45
2023/08/07 05:41:02;;;;;;;4.45;2.50;;;;;;;23.95;57.96;94283.47;5091492;28;20243;-42
2023/08/07 05:43:29;;;;;;;2.38;2.20;;;;;;;23.86;58.66;94286.69;5091035;28;20235;-43
2023/08/07 05:45:56;;;;;;;2.70;2.20;;;;;;;23.88;57.99;94290.66;5090999;28;20202;-43
2023/08/07 05:48:23;;;;;;;2.45;2.28;;;;;;;23.95;57.58;94288.69;5091036;28;20197;-41
2023/08/07 05:50:49;;;;;;;2.50;2.30;;;;;;;23.89;57.76;94294.06;5090751;28;20194;-44
2023/08/07 05:53:16;;;;;;;2.20;2.10;;;;;;;23.86;58.70;94284.06;5091106;28;20581;-41
2023/08/07 05:55:44;;;;;;;2.67;2.47;;;;;;;23.95;58.05;94286.09;5090557;28;20209;-46
2023/08/07 05:58:11;;;;;;;2.45;2.25;;;;;;;23.90;58.45;94279.97;5091417;28;20182;-43
2023/08/07 06:00:38;;;;;;;3.92;2.47;;;;;;;23.85;59.06;94285.09;5090952;28;20198;-44
2023/08/07 06:03:05;;;;;;;2.67;2.47;;;;;;;24.08;58.22;94279.81;5090923;28;20190;-43
2023/08/07 06:05:32;;;;;;;2.53;2.40;;;;;;;24.27;58.03;94283.06;5090392;28;20591;-41
2023/08/07 06:07:59;;;;;;;3.15;2.72;;;;;;;24.50;58.05;94280.38;5090732;28;20539;-41
2023/08/07 06:10:26;;;;;;;2.47;2.28;;;;;;;24.75;56.48;94285.28;5090906;28;20182;-44
2023/08/07 06:12:54;;;;;;;2.38;2.28;;;;;;;24.78;56.08;94287.44;5090491;28;20197;-42
2023/08/07 06:15:21;;;;;;;2.50;2.30;;;;;;;24.76;57.03;94286.06;5090257;28;20228;-44
2023/08/07 06:17:48;;;;;;;2.92;2.55;;;;;;;25.04;56.00;94277.34;5090526;28;20190;-43
2023/08/07 06:20:15;;;;;;;2.38;2.22;;;;;;;25.48;53.92;94286.19;5090483;28;20194;-45
2023/08/07 06:22:42;;;;;;;6.35;2.63;;;;;;;25.72;54.01;94283.38;5090066;28;20190;-42
2023/08/07 06:25:10;;;;;;;2.88;2.30;;;;;;;26.03;53.38;94274.88;5090221;28;20215;-43
2023/08/07 06:27:37;;;;;;;2.30;2.10;;;;;;;26.15;51.97;94280.00;5089835;28;20212;-43
2023/08/07 06:30:06;;;;;;;2.30;2.10;;;;;;;26.17;52.73;94275.31;5090244;28;20228;-41
2023/08/07 06:32:33;;;;;;;1.90;1.80;;;;;;;26.34;51.37;94275.25;5089970;28;20197;-43
2023/08/07 06:35:00;;;;;;;2.72;2.00;;;;;;;26.52;50.98;94264.47;5089902;28;20218;-42
2023/08/07 06:37:26;;;;;;;1.92;1.83;;;;;;;26.81;49.65;94268.63;5090258;28;20181;-45
2023/08/07 06:39:53;;;;;;;3.00;2.50;;;;;;;26.99;48.29;94278.78;5089851;28;20209;-44
2023/08/07 06:42:20;;;;;;;2.22;2.10;;;;;;;26.86;48.34;94274.75;5089864;28;20197;-42
2023/08/07 06:44:47;;;;;;;1.90;1.80;;;;;;;26.80;48.87;94280.19;5090326;28;20205;-44
2023/08/07 06:47:15;;;;;;;1.85;1.75;;;;;;;26.84;47.79;94282.06;5090301;28;20223;-44
2023/08/07 06:49:42;;;;;;;2.45;1.80;;;;;;;26.82;46.93;94278.13;5089732;28;20182;-42
2023/08/07 06:52:09;;;;;;;1.55;1.45;;;;;;;26.75;45.66;94283.56;5089617;28;20217;-44
2023/08/07 06:54:36;;;;;;;1.83;1.73;;;;;;;26.62;45.96;94274.25;5089499;28;20190;-42
2023/08/07 06:57:03;;;;;;;1.35;1.33;;;;;;;26.76;46.18;94275.44;5089844;28;20312;-43
2023/08/07 06:59:30;;;;;;;1.40;1.30;;;;;;;26.94;44.32;94276.09;5088928;28;20268;-41
2023/08/07 07:01:56;;;;;;;1.55;1.45;;;;;;;26.85;44.24;94277.59;5089587;28;20186;-43
2023/08/07 07:04:24;;;;;;;1.38;1.35;;;;;;;26.57;45.00;94282.06;5089582;28;20656;-42
2023/08/07 07:06:51;;;;;;;1.75;1.65;;;;;;;26.27;45.74;94282.50;5089862;28;20197;-44
2023/08/07 07:09:18;;;;;;;1.58;1.48;;;;;;;26.15;45.87;94280.00;5089802;28;20194;-43
2023/08/07 07:11:45;;;;;;;3.83;1.55;;;;;;;26.07;46.48;94282.25;5089613;28;20272;-43
2023/08/07 07:14:12;;;;;;;1.70;1.60;;;;;;;26.09;46.23;94280.22;5089223;28;20564;-42
2023/08/07 07:16:39;;;;;;;1.65;1.40;;;;;;;26.13;46.40;94274.22;5089370;28;20692;-43
2023/08/07 07:19:06;;;;;;;2.20;2.00;;;;;;;26.31;45.97;94277.56;5089291;28;20207;-42
2023/08/07 07:21:35;;;;;;;1.70;1.60;;;;;;;26.47;45.75;94277.53;5089466;28;20189;-42
2023/08/07 07:24:02;;;;;;;1.45;1.38;;;;;;;26.59;44.72;94279.19;5089657;28;20189;-43
2023/08/07 07:26:29;;;;;;;1.50;1.40;;;;;;;25.88;45.04;94208.41;5089263;28;20194;-41
2023/08/07 07:28:56;;;;;;;1.90;1.80;;;;;;;26.18;46.32;94278.75;5089454;28;20604;-42
2023/08/07 07:31:23;;;;;;;1.52;1.42;;;;;;;26.07;45.95;94277.03;5089596;28;20233;-44
2023/08/07 07:33:49;;;;;;;1.80;1.60;;;;;;;26.19;46.49;94268.00;5090230;28;20189;-44
2023/08/07 07:36:17;;;;;;;1.52;1.42;;;;;;;26.54;45.53;94268.66;5089583;28;20254;-43
2023/08/07 07:38:46;;;;;;;1.50;1.40;;;;;;;26.69;44.64;94266.19;5089571;28;20550;-43
2023/08/07 07:41:13;;;;;;;1.38;1.35;;;;;;;26.75;44.08;94271.22;5089021;28;20186;-44
2023/08/07 07:43:40;;;;;;;1.42;1.40;;;;;;;26.73;43.51;94270.69;5089376;28;20189;-43
2023/08/07 07:46:07;;;;;;;1.55;1.45;;;;;;;26.73;44.04;94268.06;5089341;28;20190;-42
2023/08/07 07:48:33;;;;;;;2.92;1.65;;;;;;;26.90;44.09;94261.91;5089276;28;20247;-42
2023/08/07 07:51:00;;;;;;;2.90;1.48;;;;;;;27.13;43.54;94266.06;5089471;28;20588;-41
2023/08/07 07:53:27;;;;;;;1.42;1.33;;;;;;;27.31;43.40;94268.28;5089562;28;20626;-44
2023/08/07 07:55:56;;;;;;;2.42;1.60;;;;;;;27.37;43.93;94269.91;5089480;28;20208;-43
2023/08/07 07:58:23;;;;;;;2.28;1.63;;;;;;;27.43;43.92;94268.91;5089440;28;20734;-44
2023/08/07 08:00:52;;;;;;;2.03;1.50;;;;;;;27.54;43.19;94261.06;5089564;28;20186;-44
2023/08/07 08:03:19;;;;;;;1.88;1.77;;;;;;;27.44;43.25;94240.81;5088710;28;20747;-42
2023/08/07 08:05:45;;;;;;;1.48;1.40;;;;;;;27.53;43.38;94260.28;5089129;28;20186;-45
2023/08/07 08:08:12;;;;;;;2.20;1.50;;;;;;;27.63;43.83;94260.34;5088876;28;20193;-44
2023/08/07 08:10:39;;;;;;;2.65;1.70;;;;;;;27.79;43.09;94257.84;5089962;28;20194;-44
2023/08/07 08:13:09;;;;;;;1.70;1.58;;;;;;;27.73;43.15;94263.06;5092589;28;20296;-44
2023/08/07 08:15:36;;;;;;;3.72;1.50;;;;;;;27.74;42.84;94256.75;5092651;28;20229;-44
2023/08/07 08:18:03;;;;;;;1.48;1.38;;;;;;;27.77;42.65;94255.47;5092381;28;20994;-44
2023/08/07 08:20:31;;;;;;;1.70;1.60;;;;;;;27.65;43.23;94254.84;5093023;28;20204;-43
2023/08/07 08:22:57;;;;;;;1.73;1.63;;;;;;;27.84;43.18;94247.34;5092906;28;20225;-42
2023/08/07 08:25:24;;;;;;;2.72;2.00;;;;;;;28.03;42.21;94248.50;5092680;28;20178;-43
2023/08/07 08:27:51;;;;;;;1.67;1.58;;;;;;;27.92;42.24;94242.38;5092195;28;20213;-44
2023/08/07 08:30:20;;;;;;;3.28;1.45;;;;;;;27.80;43.01;94244.44;5092034;28;20218;-43
2023/08/07 08:32:47;;;;;;;2.08;1.52;;;;;;;27.68;42.76;94241.22;5092031;28;20186;-43
2023/08/07 08:35:13;;;;;;;1.80;1.70;;;;;;;27.73;42.58;94249.94;5092062;28;20196;-43
2023/08/07 08:37:40;;;;;;;1.63;1.52;;;;;;;27.77;43.39;94237.06;5092275;28;20741;-43
2023/08/07 08:40:09;;;;;;;1.60;1.50;;;;;;;27.83;42.49;94235.25;5091889;28;20189;-44
2023/08/07 08:42:37;;;;;;;1.60;1.50;;;;;;;27.65;42.33;94250.38;5091662;28;20194;-44
2023/08/07 08:45:06;;;;;;;2.08;1.60;;;;;;;27.45;42.80;94251.03;5091711;28;20189;-45
2023/08/07 08:47:36;;;;;;;1.73;1.63;;;;;;;27.65;42.82;94250.38;5092214;28;20209;-44
2023/08/07 08:50:07;;;;;;;1.55;1.45;;;;;;;27.65;42.53;94213.59;5091994;28;20202;-42
2023/08/07 08:52:34;;;;;;;1.40;1.40;;;;;;;27.89;42.67;94240.28;5092096;28;20200;-43
2023/08/07 08:55:02;;;;;;;1.75;1.65;;;;;;;27.92;42.43;94231.09;5091729;28;20190;-44
2023/08/07 08:57:30;;;;;;;1.60;1.50;;;;;;;27.99;42.47;94237.69;5091776;28;20318;-43
2023/08/07 08:59:58;;;;;;;2.72;1.60;;;;;;;27.97;42.11;94228.47;5091539;28;20197;-43
2023/08/07 09:02:25;;;;;;;1.52;1.42;;;;;;;28.14;41.57;94231.69;5091988;28;20189;-45
2023/08/07 09:04:53;;;;;;;1.70;1.60;;;;;;;28.26;41.19;94234.88;5091756;28;20178;-42
2023/08/07 09:07:21;;;;;;;1.75;1.50;;;;;;;28.15;41.21;94211.44;5092163;28;20186;-47
2023/08/07 09:09:50;;;;;;;1.50;1.40;;;;;;;28.45;41.08;94237.88;5091635;28;20663;-44
2023/08/07 09:12:24;;;;;;;3.38;2.00;;;;;;;28.42;41.10;94232.34;5091846;28;20551;-45
2023/08/07 09:14:55;;;;;;;1.92;1.60;;;;;;;28.39;40.79;94231.00;5091843;28;20603;-45
2023/08/07 09:17:25;;;;;;;1.55;1.45;;;;;;;28.43;41.08;94232.06;5091760;28;20232;-43
2023/08/07 09:19:54;;;;;;;4.70;1.75;;;;;;;28.21;41.14;94197.28;5091524;28;20254;-45
2023/08/07 09:22:20;;;;;;;1.23;1.23;;;;;;;28.28;41.76;94224.09;5090682;28;20711;-43
2023/08/07 09:24:47;;;;;;;1.60;1.50;;;;;;;28.30;42.10;94213.34;5091660;28;20177;-44
2023/08/07 09:27:14;;;;;;;1.98;1.70;;;;;;;28.24;41.59;94205.44;5091429;28;20181;-43
2023/08/07 09:29:41;;;;;;;1.55;1.48;;;;;;;28.19;42.11;94197.50;5090885;28;20178;-45
2023/08/07 09:32:09;;;;;;;1.90;1.80;;;;;;;28.30;41.76;94210.69;5091247;28;20681;-44
2023/08/07 09:34:36;;;;;;;2.05;1.65;;;;;;;28.22;41.82;94204.88;5091336;28;20200;-44
2023/08/07 09:37:04;;;;;;;1.67;1.58;;;;;;;28.18;41.98;94213.56;5090854;28;20225;-43
2023/08/07 09:39:31;;;;;;;2.53;1.73;;;;;;;28.17;41.98;94211.97;5091418;28;20204;-43
2023/08/07 09:41:58;;;;;;;1.70;1.60;;;;;;;28.11;41.97;94216.44;5091124;28;20186;-43
2023/08/07 09:44:25;;;;;;;2.65;1.70;;;;;;;27.96;42.04;94208.50;5091268;28;20185;-44
2023/08/07 09:46:51;;;;;;;1.70;1.60;;;;;;;28.04;42.08;94215.09;5090656;28;20190;-44
2023/08/07 09:49:19;;;;;;;2.53;1.75;;;;;;;28.05;42.07;94214.03;5090834;28;20603;-44
2023/08/07 09:51:50;;;;;;;3.83;1.92;;;;;;;27.94;42.08;94210.59;5090804;28;20644;-46
2023/08/07 09:54:18;;;;;;;3.50;1.75;;;;;;;27.95;41.90;94205.09;5091060;28;20576;-44
2023/08/07 09:56:46;;;;;;;1.80;1.67;;;;;;;27.93;41.46;94209.00;5090986;28;20213;-44
2023/08/07 09:59:12;;;;;;;2.35;1.75;;;;;;;27.73;41.99;94210.50;5091055;28;20260;-43
2023/08/07 10:01:39;;;;;;;1.45;1.35;;;;;;;27.57;42.23;94205.41;5090708;28;20669;-43
2023/08/07 10:04:07;;;;;;;1.77;1.67;;;;;;;27.50;42.58;94209.06;5090891;28;20186;-44
2023/08/07 10:06:35;;;;;;;1.40;1.40;;;;;;;27.52;41.78;94203.56;5090687;28;20269;-45
2023/08/07 10:09:02;;;;;;;2.92;1.70;;;;;;;27.24;41.58;94175.81;5090767;28;20231;-43
2023/08/07 10:11:31;;;;;;;1.75;1.60;;;;;;;27.07;42.60;94172.53;5090606;28;20610;-44
2023/08/07 10:13:59;;;;;;;1.55;1.52;;;;;;;27.28;43.65;94205.75;5090761;28;20287;-45
2023/08/07 10:16:28;;;;;;;1.35;1.33;;;;;;;27.33;42.96;94189.25;5090589;28;20218;-45
2023/08/07 10:18:56;;;;;;;1.80;1.70;;;;;;;27.59;43.11;94209.38;5090405;28;20194;-46
2023/08/07 10:21:24;;;;;;;3.15;1.67;;;;;;;27.68;42.15;94207.84;5090448;28;20232;-43
2023/08/07 10:23:53;;;;;;;1.80;1.70;;;;;;;27.70;42.54;94207.56;5090075;28;20182;-44
2023/08/07 10:26:23;;;;;;;1.73;1.63;;;;;;;27.65;42.07;94205.72;5090171;28;20193;-45
2023/08/07 10:28:53;;;;;;;1.73;1.40;;;;;;;27.51;42.40;94202.75;5089981;28;20696;-43
2023/08/07 10:31:23;;;;;;;1.50;1.40;;;;;;;27.49;42.40;94201.44;5090022;28;20690;-42
2023/08/07 10:33:50;;;;;;;1.70;1.60;;;;;;;27.51;41.74;94200.13;5089108;28;20217;-42
2023/08/07 10:36:17;;;;;;;1.60;1.50;;;;;;;27.32;41.92;94193.72;5090112;28;20223;-42
2023/08/07 10:38:44;;;;;;;4.72;1.63;;;;;;;27.18;43.20;94196.00;5089806;28;20218;-42
2023/08/07 10:41:14;;;;;;;2.33;1.55;;;;;;;27.10;42.26;94185.97;5090239;28;20611;-43
2023/08/07 10:43:41;;;;;;;1.75;1.35;;;;;;;27.11;42.91;94192.78;5089734;28;20664;-43
2023/08/07 10:46:11;;;;;;;2.90;1.98;;;;;;;26.67;43.72;94135.25;5090118;28;20196;-42
2023/08/07 10:48:45;;;;;;;1.98;1.60;;;;;;;27.09;43.44;94194.91;5089884;28;20193;-43
2023/08/07 10:51:14;;;;;;;2.35;1.50;;;;;;;27.20;43.97;94193.13;5089779;28;20258;-43
2023/08/07 10:53:44;;;;;;;2.42;1.70;;;;;;;27.26;43.89;94182.41;5089678;28;20225;-42
2023/08/07 10:56:12;;;;;;;3.70;1.70;;;;;;;27.38;44.74;94173.53;5090032;28;20235;-43
2023/08/07 10:58:40;;;;;;;1.77;1.67;;;;;;;27.59;43.83;94175.22;5089687;28;20190;-45
2023/08/07 11:01:22;;;;;;;1.70;1.60;;;;;;;27.69;42.93;94174.47;5089679;28;20254;-42
2023/08/07 11:03:54;;;;;;;1.80;1.70;;;;;;;27.73;43.05;94160.59;5089184;28;20177;-43
2023/08/07 11:06:26;;;;;;;1.88;1.77;;;;;;;27.89;43.30;94176.38;5089784;28;20182;-42
2023/08/07 11:08:53;;;;;;;1.60;1.50;;;;;;;28.08;43.04;94171.47;5089446;28;20185;-42
2023/08/07 11:11:20;;;;;;;1.75;1.65;;;;;;;28.16;42.24;94165.72;5089597;28;20193;-43
2023/08/07 11:13:47;;;;;;;1.58;1.48;;;;;;;28.23;42.09;94161.75;5090205;28;20182;-43
2023/08/07 11:16:14;;;;;;;2.17;1.70;;;;;;;28.24;41.69;94162.56;5089340;28;20189;-43
2023/08/07 11:18:43;;;;;;;1.40;1.30;;;;;;;28.28;42.20;94155.72;5089255;28;20181;-43
2023/08/07 11:21:11;;;;;;;1.98;1.60;;;;;;;28.39;42.26;94153.94;5089969;28;20342;-43
2023/08/07 11:23:38;;;;;;;1.55;1.45;;;;;;;28.54;41.48;94145.25;5089506;28;20275;-43
2023/08/07 11:26:05;;;;;;;1.90;1.80;;;;;;;28.63;41.10;94147.09;5089413;28;20198;-42
2023/08/07 11:28:32;;;;;;;1.77;1.67;;;;;;;28.63;40.61;94146.31;5089041;28;20300;-43
2023/08/07 11:30:59;;;;;;;3.85;1.70;;;;;;;28.65;40.45;94152.09;5089183;28;20677;-43
2023/08/07 11:33:27;;;;;;;1.70;1.60;;;;;;;28.66;40.52;94146.56;5089272;28;20564;-43
2023/08/07 11:35:56;;;;;;;1.88;1.63;;;;;;;28.64;40.41;94135.53;5089433;28;20193;-43